createdAt,value
2023-03-02T00:01:43.269Z,102809.72
2023-03-02T00:04:16.788Z,102807.09
2023-03-02T00:06:43.545Z,102811.44
2023-03-02T00:09:09.920Z,102820.09
2023-03-02T00:11:38.609Z,102808.78
2023-03-02T00:14:06.329Z,102803.59
2023-03-02T00:16:33.893Z,102802.69
2023-03-02T00:19:00.376Z,102798.38
2023-03-02T00:21:26.712Z,102796.63
2023-03-02T00:23:53.385Z,102791.41
2023-03-02T00:26:19.797Z,102800.03
2023-03-02T00:28:46.362Z,102801.72
2023-03-02T00:31:12.732Z,102795.63
2023-03-02T00:33:39.194Z,102796.50
2023-03-02T00:36:06.087Z,102790.44
2023-03-02T00:38:32.496Z,102800.00
2023-03-02T00:40:59.336Z,102801.72
2023-03-02T00:43:28.032Z,102804.31
2023-03-02T00:45:55.194Z,102792.22
2023-03-02T00:48:21.648Z,102794.81
2023-03-02T00:50:48.057Z,102791.38
2023-03-02T00:53:14.441Z,102793.97
2023-03-02T00:55:40.765Z,102800.84
2023-03-02T00:58:07.127Z,102802.59
2023-03-02T01:00:35.723Z,102794.81
2023-03-02T01:03:02.093Z,102796.56
2023-03-02T01:05:28.544Z,102800.91
2023-03-02T01:07:54.860Z,102800.91
2023-03-02T01:10:22.262Z,102803.50
2023-03-02T01:12:48.612Z,102792.22
2023-03-02T01:15:15.148Z,102798.25
2023-03-02T01:17:42.900Z,102790.47
2023-03-02T01:20:10.844Z,102792.22
2023-03-02T01:22:37.246Z,102796.50
2023-03-02T01:25:04.320Z,102793.03
2023-03-02T01:27:30.756Z,102793.91
2023-03-02T01:29:57.199Z,102790.44
2023-03-02T01:32:23.733Z,102783.53
2023-03-02T01:34:50.114Z,102787.88
2023-03-02T01:37:16.508Z,102784.44
2023-03-02T01:39:42.878Z,102770.56
2023-03-02T01:42:09.353Z,102769.75
2023-03-02T01:44:43.605Z,102775.78
2023-03-02T01:47:34.995Z,102774.03
2023-03-02T01:50:16.778Z,102772.31
2023-03-02T01:52:43.300Z,102772.34
2023-03-02T01:55:13.710Z,102767.16
2023-03-02T01:57:46.515Z,102774.09
2023-03-02T02:00:19.351Z,102778.38
2023-03-02T02:02:46.366Z,102780.13
2023-03-02T02:05:19.417Z,102779.25
2023-03-02T02:07:46.336Z,102767.13
2023-03-02T02:10:14.574Z,102774.91
2023-03-02T02:12:40.991Z,102767.97
2023-03-02T02:15:08.061Z,102764.47
2023-03-02T02:17:35.241Z,102768.78
2023-03-02T02:20:50.065Z,102759.25
2023-03-02T02:23:26.452Z,102761.88
2023-03-02T02:25:55.574Z,102761.88
2023-03-02T02:28:29.268Z,102759.28
2023-03-02T02:31:07.517Z,102757.53
2023-03-02T02:33:36.561Z,102760.13
2023-03-02T02:36:07.728Z,102757.53
2023-03-02T02:38:36.315Z,102752.34
2023-03-02T02:41:06.574Z,102758.41
2023-03-02T02:43:33.670Z,102762.69
2023-03-02T02:46:01.349Z,102751.38
2023-03-02T02:48:31.073Z,102749.69
2023-03-02T02:51:03.054Z,102752.28
2023-03-02T02:53:59.349Z,102746.25
2023-03-02T02:56:29.318Z,102748.88
2023-03-02T02:58:58.431Z,102736.78
2023-03-02T03:01:26.293Z,102733.31
2023-03-02T03:03:59.006Z,102735.94
2023-03-02T03:06:30.333Z,102724.66
2023-03-02T03:08:59.993Z,102735.91
2023-03-02T03:11:32.181Z,102737.59
2023-03-02T03:14:17.135Z,102741.06
2023-03-02T03:16:46.641Z,102736.72
2023-03-02T03:19:24.805Z,102736.63
2023-03-02T03:21:54.402Z,102738.31
2023-03-02T03:24:21.697Z,102741.81
2023-03-02T03:26:48.758Z,102734.88
2023-03-02T03:29:16.460Z,102735.78
2023-03-02T03:31:42.985Z,102736.66
2023-03-02T03:34:11.057Z,102729.75
2023-03-02T03:36:37.566Z,102728.84
2023-03-02T03:39:05.631Z,102728.84
2023-03-02T03:41:32.279Z,102733.13
2023-03-02T03:43:58.673Z,102728.84
2023-03-02T03:46:25.168Z,102726.22
2023-03-02T03:48:51.763Z,102727.06
2023-03-02T03:51:18.667Z,102733.13
2023-03-02T03:53:45.094Z,102730.50
2023-03-02T03:56:11.804Z,102733.94
2023-03-02T03:58:38.604Z,102730.50
2023-03-02T04:01:05.161Z,102733.97
2023-03-02T04:03:31.726Z,102747.81
2023-03-02T04:05:58.111Z,102737.47
2023-03-02T04:08:24.473Z,102743.53
2023-03-02T04:10:50.830Z,102746.09
2023-03-02T04:13:17.254Z,102733.09
2023-03-02T04:15:46.561Z,102735.63
2023-03-02T04:18:13.408Z,102724.41
2023-03-02T04:20:39.839Z,102726.16
2023-03-02T04:23:06.192Z,102729.56
2023-03-02T04:25:32.674Z,102729.59
2023-03-02T04:27:59.140Z,102732.19
2023-03-02T04:30:26.526Z,102718.34
2023-03-02T04:32:53.459Z,102734.75
2023-03-02T04:35:20.175Z,102728.69
2023-03-02T04:37:47.017Z,102740.81
2023-03-02T04:40:14.797Z,102737.31
2023-03-02T04:42:41.740Z,102737.28
2023-03-02T04:45:08.562Z,102729.50
2023-03-02T04:47:34.984Z,102730.34
2023-03-02T04:50:01.515Z,102729.50
2023-03-02T04:52:27.948Z,102735.53
2023-03-02T04:54:54.329Z,102739.81
2023-03-02T04:57:20.725Z,102737.22
2023-03-02T04:59:47.112Z,102735.53
2023-03-02T05:02:13.610Z,102740.72
2023-03-02T05:04:41.014Z,102739.03
2023-03-02T05:07:07.701Z,102731.25
2023-03-02T05:09:34.066Z,102732.03
2023-03-02T05:12:01.484Z,102727.72
2023-03-02T05:14:29.233Z,102734.69
2023-03-02T05:16:55.772Z,102733.78
2023-03-02T05:19:22.207Z,102728.59
2023-03-02T05:21:48.791Z,102728.56
2023-03-02T05:24:15.301Z,102730.28
2023-03-02T05:26:41.901Z,102734.56
2023-03-02T05:29:08.436Z,102728.50
2023-03-02T05:31:38.770Z,102729.34
2023-03-02T05:34:07.453Z,102732.81
2023-03-02T05:36:34.430Z,102732.78
2023-03-02T05:39:01.391Z,102727.59
2023-03-02T05:41:28.001Z,102726.66
2023-03-02T05:43:54.426Z,102730.09
2023-03-02T05:46:22.137Z,102727.50
2023-03-02T05:48:48.892Z,102736.19
2023-03-02T05:51:15.604Z,102723.19
2023-03-02T05:53:41.973Z,102723.19
2023-03-02T05:56:08.459Z,102724.94
2023-03-02T05:58:34.942Z,102725.78
2023-03-02T06:01:01.468Z,102730.03
2023-03-02T06:03:28.100Z,102732.56
2023-03-02T06:05:54.545Z,102739.50
2023-03-02T06:08:21.769Z,102737.75
2023-03-02T06:10:50.610Z,102734.16
2023-03-02T06:13:17.249Z,102741.94
2023-03-02T06:15:43.889Z,102737.63
2023-03-02T06:18:12.412Z,102745.31
2023-03-02T06:20:39.514Z,102750.47
2023-03-02T06:23:05.909Z,102755.56
2023-03-02T06:25:32.291Z,102755.47
2023-03-02T06:27:58.666Z,102749.41
2023-03-02T06:30:27.473Z,102753.75
2023-03-02T06:32:53.854Z,102755.59
2023-03-02T06:35:20.485Z,102755.66
2023-03-02T06:37:46.953Z,102755.66
2023-03-02T06:40:14.249Z,102764.34
2023-03-02T06:42:42.102Z,102760.84
2023-03-02T06:45:10.204Z,102765.09
2023-03-02T06:47:36.884Z,102773.72
2023-03-02T06:50:04.054Z,102773.69
2023-03-02T06:52:30.548Z,102768.47
2023-03-02T06:54:56.964Z,102771.94
2023-03-02T06:57:23.913Z,102770.22
2023-03-02T06:59:50.407Z,102777.09
2023-03-02T07:02:16.778Z,102769.34
2023-03-02T07:04:43.206Z,102779.78
2023-03-02T07:07:09.596Z,102777.19
2023-03-02T07:09:36.095Z,102783.28
2023-03-02T07:12:02.752Z,102783.31
2023-03-02T07:14:29.189Z,102778.97
2023-03-02T07:16:57.512Z,102785.00
2023-03-02T07:19:24.266Z,102772.94
2023-03-02T07:21:50.617Z,102778.16
2023-03-02T07:24:16.989Z,102771.19
2023-03-02T07:26:43.384Z,102774.63
2023-03-02T07:29:09.777Z,102774.69
2023-03-02T07:31:36.102Z,102778.13
2023-03-02T07:34:02.572Z,102774.63
2023-03-02T07:36:28.974Z,102767.75
2023-03-02T07:38:55.456Z,102772.09
2023-03-02T07:41:22.742Z,102766.91
2023-03-02T07:43:49.085Z,102772.09
2023-03-02T07:46:15.558Z,102765.19
2023-03-02T07:48:41.971Z,102765.25
2023-03-02T07:51:08.446Z,102766.09
2023-03-02T07:53:35.154Z,102771.34
2023-03-02T07:56:09.670Z,102767.91
2023-03-02T07:58:36.682Z,102773.09
2023-03-02T08:01:03.833Z,102771.34
2023-03-02T08:03:30.277Z,102769.69
2023-03-02T08:05:56.695Z,102766.25
2023-03-02T08:08:23.136Z,102770.63
2023-03-02T08:10:49.603Z,102769.81
2023-03-02T08:13:15.957Z,102762.94
2023-03-02T08:15:42.295Z,102762.09
2023-03-02T08:18:08.646Z,102763.81
2023-03-02T08:20:35.005Z,102768.13
2023-03-02T08:23:01.418Z,102769.06
2023-03-02T08:25:27.776Z,102768.19
2023-03-02T08:27:54.123Z,102765.66
2023-03-02T08:30:20.511Z,102763.09
2023-03-02T08:32:46.937Z,102774.34
2023-03-02T08:35:13.404Z,102764.84
2023-03-02T08:37:39.738Z,102756.22
2023-03-02T08:40:06.868Z,102760.56
2023-03-02T08:42:33.229Z,102762.28
2023-03-02T08:44:59.594Z,102764.91
2023-03-02T08:47:26.628Z,102769.25
2023-03-02T08:49:52.962Z,102761.50
2023-03-02T08:52:19.434Z,102759.75
2023-03-02T08:54:46.583Z,102768.44
2023-03-02T08:57:13.119Z,102764.16
2023-03-02T08:59:39.931Z,102761.56
2023-03-02T09:02:07.382Z,102768.50
2023-03-02T09:04:33.887Z,102760.72
2023-03-02T09:07:00.302Z,102759.91
2023-03-02T09:09:26.645Z,102763.41
2023-03-02T09:11:53.121Z,102759.94
2023-03-02T09:14:19.504Z,102761.69
2023-03-02T09:16:46.884Z,102757.38
2023-03-02T09:19:14.088Z,102748.78
2023-03-02T09:21:40.633Z,102753.97
2023-03-02T09:24:07.212Z,102751.44
2023-03-02T09:26:34.044Z,102766.16
2023-03-02T09:29:00.664Z,102757.50
2023-03-02T09:31:30.008Z,102764.44
2023-03-02T09:33:57.017Z,102749.75
2023-03-02T09:36:25.294Z,102751.50
2023-03-02T09:38:51.825Z,102750.69
2023-03-02T09:41:33.070Z,102764.56
2023-03-02T09:44:29.866Z,102755.88
2023-03-02T09:47:02.798Z,102751.56
2023-03-02T09:49:41.341Z,102751.59
2023-03-02T09:52:13.879Z,102749.88
2023-03-02T09:54:40.837Z,102762.03
2023-03-02T09:57:26.725Z,102754.28
2023-03-02T10:00:24.126Z,102749.97
2023-03-02T10:02:56.219Z,102754.28
2023-03-02T10:05:39.637Z,102753.47
2023-03-02T10:08:12.805Z,102753.47
2023-03-02T10:11:17.792Z,102749.13
2023-03-02T10:13:49.408Z,102753.50
2023-03-02T10:16:25.233Z,102757.84
2023-03-02T10:19:15.744Z,102752.63
2023-03-02T10:21:58.074Z,102747.44
2023-03-02T10:24:38.073Z,102741.38
2023-03-02T10:27:21.021Z,102746.59
2023-03-02T10:30:27.666Z,102744.00
2023-03-02T10:32:58.234Z,102756.16
2023-03-02T10:35:26.702Z,102745.72
2023-03-02T10:38:15.141Z,102739.66
2023-03-02T10:40:43.226Z,102738.78
2023-03-02T10:43:45.245Z,102739.63
2023-03-02T10:46:13.570Z,102730.06
2023-03-02T10:48:49.861Z,102728.31
2023-03-02T10:51:29.899Z,102724.84
2023-03-02T10:54:16.898Z,102736.06
2023-03-02T10:56:49.742Z,102735.19
2023-03-02T10:59:24.934Z,102717.81
2023-03-02T11:02:23.148Z,102723.88
2023-03-02T11:04:58.314Z,102715.13
2023-03-02T11:07:27.686Z,102711.59
2023-03-02T11:10:02.746Z,102708.94
2023-03-02T11:12:30.017Z,102703.69
2023-03-02T11:15:45.375Z,102692.38
2023-03-02T11:18:14.835Z,102697.56
2023-03-02T11:20:46.569Z,102688.84
2023-03-02T11:23:18.581Z,102687.06
2023-03-02T11:25:52.892Z,102687.03
2023-03-02T11:28:34.299Z,102685.25
2023-03-02T11:31:02.736Z,102680.81
2023-03-02T11:33:36.722Z,102678.09
2023-03-02T11:36:12.157Z,102675.50
2023-03-02T11:38:54.573Z,102667.56
2023-03-02T11:41:31.496Z,102667.47
2023-03-02T11:44:07.671Z,102665.69
2023-03-02T11:46:35.109Z,102665.72
2023-03-02T11:49:07.050Z,102660.44
2023-03-02T11:51:37.847Z,102656.03
2023-03-02T11:54:11.669Z,102655.91
2023-03-02T11:56:40.128Z,102642.81
2023-03-02T11:59:15.585Z,102648.06
2023-03-02T12:01:47.893Z,102650.56
2023-03-02T12:04:43.868Z,102649.66
2023-03-02T12:07:19.545Z,102647.97
2023-03-02T12:09:56.985Z,102637.56
2023-03-02T12:12:26.431Z,102635.75
2023-03-02T12:14:53.050Z,102633.94
2023-03-02T12:17:19.325Z,102631.31
2023-03-02T12:19:47.045Z,102633.03
2023-03-02T12:22:15.247Z,102623.41
2023-03-02T12:24:44.793Z,102625.94
2023-03-02T12:27:14.093Z,102626.75
2023-03-02T12:29:47.908Z,102621.41
2023-03-02T12:32:26.881Z,102619.53
2023-03-02T12:34:56.926Z,102613.47
2023-03-02T12:37:28.143Z,102615.97
2023-03-02T12:40:17.042Z,102614.13
2023-03-02T12:43:03.087Z,102605.34
2023-03-02T12:45:52.358Z,102612.31
2023-03-02T12:48:45.218Z,102603.59
2023-03-02T12:51:24.233Z,102594.91
2023-03-02T12:54:05.815Z,102606.09
2023-03-02T12:56:33.066Z,102601.56
2023-03-02T12:58:59.538Z,102603.25
2023-03-02T13:01:28.875Z,102605.84
2023-03-02T13:03:55.854Z,102600.53
2023-03-02T13:06:25.941Z,102595.28
2023-03-02T13:08:55.691Z,102601.41
2023-03-02T13:11:33.182Z,102589.97
2023-03-02T13:14:03.599Z,102581.25
2023-03-02T13:16:33.026Z,102573.38
2023-03-02T13:19:02.330Z,102568.00
2023-03-02T13:21:34.717Z,102570.56
2023-03-02T13:24:01.564Z,102568.81
2023-03-02T13:26:29.692Z,102566.25
2023-03-02T13:29:06.243Z,102559.25
2023-03-02T13:31:34.033Z,102562.75
2023-03-02T13:34:01.220Z,102562.69
2023-03-02T13:36:35.863Z,102554.88
2023-03-02T13:39:06.883Z,102564.41
2023-03-02T13:41:36.024Z,102563.56
2023-03-02T13:44:19.758Z,102569.56
2023-03-02T13:46:47.139Z,102556.50
2023-03-02T13:49:13.613Z,102573.94
2023-03-02T13:51:46.372Z,102562.63
2023-03-02T13:54:20.727Z,102568.72
2023-03-02T13:56:47.388Z,102564.34
2023-03-02T13:59:18.611Z,102564.41
2023-03-02T14:01:45.663Z,102560.81
2023-03-02T14:04:17.535Z,102565.97
2023-03-02T14:06:45.573Z,102559.06
2023-03-02T14:09:12.017Z,102550.34
2023-03-02T14:11:45.012Z,102552.97
2023-03-02T14:14:17.607Z,102551.19
2023-03-02T14:16:44.041Z,102546.88
2023-03-02T14:19:16.206Z,102551.19
2023-03-02T14:21:43.334Z,102554.66
2023-03-02T14:24:10.252Z,102548.56
2023-03-02T14:26:40.655Z,102540.72
2023-03-02T14:29:20.782Z,102538.97
2023-03-02T14:31:47.605Z,102532.91
2023-03-02T14:34:15.844Z,102534.66
2023-03-02T14:36:44.459Z,102530.34
2023-03-02T14:39:29.475Z,102529.50
2023-03-02T14:41:56.394Z,102531.13
2023-03-02T14:44:23.142Z,102526.81
2023-03-02T14:46:49.790Z,102523.31
2023-03-02T14:49:16.265Z,102525.88
2023-03-02T14:51:48.665Z,102519.88
2023-03-02T14:54:19.181Z,102521.63
2023-03-02T14:56:46.226Z,102512.03
2023-03-02T14:59:14.256Z,102519.88
2023-03-02T15:01:41.930Z,102520.72
2023-03-02T15:04:08.310Z,102508.50
2023-03-02T15:06:38.974Z,102508.50
2023-03-02T15:09:06.427Z,102511.03
2023-03-02T15:11:33.112Z,102496.22
2023-03-02T15:13:59.619Z,102503.28
2023-03-02T15:16:26.136Z,102504.97
2023-03-02T15:18:53.190Z,102509.31
2023-03-02T15:21:24.471Z,102507.59
2023-03-02T15:23:51.373Z,102505.88
2023-03-02T15:26:18.167Z,102506.78
2023-03-02T15:28:47.165Z,102507.72
2023-03-02T15:31:15.433Z,102499.88
2023-03-02T15:33:43.145Z,102506.88
2023-03-02T15:36:09.775Z,102501.66
2023-03-02T15:38:36.611Z,102501.72
2023-03-02T15:41:08.439Z,102504.34
2023-03-02T15:43:34.966Z,102498.25
2023-03-02T15:46:02.236Z,102503.50
2023-03-02T15:48:30.102Z,102495.66
2023-03-02T15:51:01.152Z,102496.50
2023-03-02T15:53:29.148Z,102496.50
2023-03-02T15:55:57.237Z,102503.47
2023-03-02T15:58:23.848Z,102500.00
2023-03-02T16:00:53.454Z,102507.00
2023-03-02T16:03:19.902Z,102513.06
2023-03-02T16:05:46.277Z,102510.50
2023-03-02T16:08:12.630Z,102511.41
2023-03-02T16:10:42.584Z,102517.53
2023-03-02T16:13:10.319Z,102521.06
2023-03-02T16:15:40.039Z,102515.84
2023-03-02T16:18:10.776Z,102516.78
2023-03-02T16:20:38.827Z,102528.13
2023-03-02T16:23:07.653Z,102519.50
2023-03-02T16:25:35.853Z,102525.63
2023-03-02T16:28:03.143Z,102534.41
2023-03-02T16:30:30.700Z,102534.44
2023-03-02T16:32:58.966Z,102536.22
2023-03-02T16:35:25.622Z,102537.97
2023-03-02T16:37:52.014Z,102538.91
2023-03-02T16:40:18.556Z,102541.59
2023-03-02T16:42:44.960Z,102547.72
2023-03-02T16:45:11.626Z,102553.88
2023-03-02T16:47:38.368Z,102547.84
2023-03-02T16:50:06.304Z,102556.56
2023-03-02T16:52:32.838Z,102564.41
2023-03-02T16:54:59.375Z,102560.09
2023-03-02T16:57:25.738Z,102566.22
2023-03-02T16:59:52.152Z,102561.06
2023-03-02T17:02:18.610Z,102562.81
2023-03-02T17:04:45.124Z,102568.03
2023-03-02T17:07:11.566Z,102572.47
2023-03-02T17:09:41.334Z,102570.78
2023-03-02T17:12:08.041Z,102575.22
2023-03-02T17:14:34.428Z,102576.94
2023-03-02T17:17:03.237Z,102583.06
2023-03-02T17:19:29.769Z,102583.09
2023-03-02T17:21:58.330Z,102590.09
2023-03-02T17:24:25.026Z,102591.84
2023-03-02T17:26:51.392Z,102593.63
2023-03-02T17:29:17.760Z,102594.56
2023-03-02T17:31:44.846Z,102598.97
2023-03-02T17:34:11.840Z,102599.00
2023-03-02T17:36:38.280Z,102599.91
2023-03-02T17:39:05.357Z,102611.28
2023-03-02T17:41:32.972Z,102613.03
2023-03-02T17:43:59.450Z,102605.22
2023-03-02T17:46:27.629Z,102604.34
2023-03-02T17:48:56.887Z,102623.56
2023-03-02T17:51:25.726Z,102617.44
2023-03-02T17:53:53.401Z,102620.91
2023-03-02T17:56:22.059Z,102626.22
2023-03-02T17:58:56.192Z,102626.19
2023-03-02T18:01:22.578Z,102635.75
2023-03-02T18:03:48.951Z,102628.84
2023-03-02T18:06:17.848Z,102645.44
2023-03-02T18:08:44.751Z,102649.75
2023-03-02T18:11:11.164Z,102648.88
2023-03-02T18:13:37.522Z,102648.06
2023-03-02T18:16:04.109Z,102657.69
2023-03-02T18:18:30.548Z,102653.34
2023-03-02T18:20:56.953Z,102656.84
2023-03-02T18:23:23.379Z,102662.94
2023-03-02T18:25:50.099Z,102662.94
2023-03-02T18:28:16.482Z,102663.88
2023-03-02T18:30:43.381Z,102669.97
2023-03-02T18:33:09.904Z,102668.25
2023-03-02T18:35:36.423Z,102669.13
2023-03-02T18:38:02.902Z,102673.44
2023-03-02T18:40:29.275Z,102676.09
2023-03-02T18:42:55.638Z,102674.38
2023-03-02T18:45:26.972Z,102679.66
2023-03-02T18:47:53.528Z,102681.38
2023-03-02T18:50:20.015Z,102682.25
2023-03-02T18:52:46.420Z,102686.66
2023-03-02T18:55:13.353Z,102687.50
2023-03-02T18:57:39.836Z,102687.50
2023-03-02T19:00:10.304Z,102691.88
2023-03-02T19:02:36.664Z,102691.88
2023-03-02T19:05:03.176Z,102692.72
2023-03-02T19:07:29.587Z,102685.78
2023-03-02T19:09:56.051Z,102691.88
2023-03-02T19:12:22.449Z,102686.66
2023-03-02T19:14:48.884Z,102688.44
2023-03-02T19:17:15.276Z,102691.91
2023-03-02T19:19:43.581Z,102687.53
2023-03-02T19:22:10.300Z,102701.50
2023-03-02T19:24:36.761Z,102697.19
2023-03-02T19:27:03.511Z,102702.38
2023-03-02T19:29:29.908Z,102706.69
2023-03-02T19:31:56.455Z,102697.19
2023-03-02T19:34:23.051Z,102701.59
2023-03-02T19:36:49.572Z,102701.63
2023-03-02T19:39:15.988Z,102710.28
2023-03-02T19:41:42.442Z,102710.25
2023-03-02T19:44:08.961Z,102707.69
2023-03-02T19:46:35.344Z,102712.06
2023-03-02T19:49:01.768Z,102710.34
2023-03-02T19:51:28.227Z,102711.19
2023-03-02T19:53:54.764Z,102719.06
2023-03-02T19:56:21.286Z,102722.59
2023-03-02T19:58:49.559Z,102720.81
2023-03-02T20:01:21.479Z,102720.88
2023-03-02T20:03:51.495Z,102716.50
2023-03-02T20:06:18.654Z,102713.91
2023-03-02T20:08:45.038Z,102708.72
2023-03-02T20:11:12.479Z,102718.28
2023-03-02T20:13:38.834Z,102711.38
2023-03-02T20:16:05.674Z,102720.09
2023-03-02T20:18:32.233Z,102714.88
2023-03-02T20:20:58.628Z,102718.38
2023-03-02T20:23:25.053Z,102711.44
2023-03-02T20:25:51.511Z,102714.03
2023-03-02T20:28:22.387Z,102723.56
2023-03-02T20:30:53.249Z,102721.84
2023-03-02T20:33:23.610Z,102722.78
2023-03-02T20:35:50.686Z,102728.00
2023-03-02T20:38:29.442Z,102727.16
2023-03-02T20:40:56.122Z,102723.69
2023-03-02T20:43:23.098Z,102726.34
2023-03-02T20:45:49.817Z,102718.53
2023-03-02T20:48:16.413Z,102726.31
2023-03-02T20:50:43.287Z,102716.78
2023-03-02T20:53:10.459Z,102721.97
2023-03-02T20:55:36.919Z,102718.53
2023-03-02T20:58:05.338Z,102721.16
2023-03-02T21:00:33.782Z,102719.41
2023-03-02T21:03:00.387Z,102727.22
2023-03-02T21:05:27.969Z,102728.94
2023-03-02T21:07:55.669Z,102733.28
2023-03-02T21:10:28.908Z,102728.09
2023-03-02T21:12:55.810Z,102732.41
2023-03-02T21:15:24.450Z,102728.09
2023-03-02T21:17:51.630Z,102728.13
2023-03-02T21:20:18.478Z,102732.44
2023-03-02T21:22:45.925Z,102741.19
2023-03-02T21:25:12.488Z,102738.56
2023-03-02T21:27:40.130Z,102751.63
2023-03-02T21:30:09.025Z,102753.34
2023-03-02T21:32:35.394Z,102746.41
2023-03-02T21:35:02.425Z,102751.63
2023-03-02T21:37:28.948Z,102748.16
2023-03-02T21:39:56.270Z,102746.44
2023-03-02T21:42:22.662Z,102737.75
2023-03-02T21:44:49.081Z,102734.28
2023-03-02T21:47:15.471Z,102730.78
2023-03-02T21:49:41.835Z,102729.91
2023-03-02T21:52:08.235Z,102733.38
2023-03-02T21:54:34.793Z,102730.78
2023-03-02T21:57:01.095Z,102723.88
2023-03-02T21:59:27.406Z,102736.06
2023-03-02T22:01:53.789Z,102745.59
2023-03-02T22:04:20.590Z,102746.47
2023-03-02T22:06:46.973Z,102738.69
2023-03-02T22:09:13.446Z,102742.13
2023-03-02T22:11:39.890Z,102736.94
2023-03-02T22:14:15.071Z,102736.94
2023-03-02T22:16:45.033Z,102743.03
2023-03-02T22:19:29.826Z,102750.84
2023-03-02T22:22:00.924Z,102744.78
2023-03-02T22:24:29.869Z,102750.00
2023-03-02T22:27:21.786Z,102750.88
2023-03-02T22:29:50.820Z,102763.88
2023-03-02T22:32:23.185Z,102774.28
2023-03-02T22:34:52.568Z,102761.31
2023-03-02T22:37:24.750Z,102755.22
2023-03-02T22:39:55.341Z,102751.78
2023-03-02T22:42:24.016Z,102750.03
2023-03-02T22:45:06.360Z,102742.19
2023-03-02T22:47:32.741Z,102748.31
2023-03-02T22:50:03.168Z,102737.88
2023-03-02T22:52:37.482Z,102739.63
2023-03-02T22:55:37.480Z,102747.44
2023-03-02T22:58:29.761Z,102745.72
2023-03-02T23:01:00.923Z,102743.06
2023-03-02T23:03:38.153Z,102745.69
2023-03-02T23:06:24.197Z,102748.31
2023-03-02T23:08:53.090Z,102754.38
2023-03-02T23:11:21.351Z,102756.09
2023-03-02T23:13:49.537Z,102757.84
2023-03-02T23:16:25.067Z,102756.97
2023-03-02T23:18:53.936Z,102753.53
2023-03-02T23:21:35.480Z,102750.06
2023-03-02T23:24:02.468Z,102755.25
2023-03-02T23:26:28.957Z,102753.50
2023-03-02T23:28:55.589Z,102755.25
2023-03-02T23:31:22.044Z,102750.94
2023-03-02T23:33:48.619Z,102750.91
2023-03-02T23:36:15.871Z,102748.31
2023-03-02T23:38:42.419Z,102750.94
2023-03-02T23:41:09.820Z,102752.66
2023-03-02T23:43:36.374Z,102750.94
2023-03-02T23:46:02.893Z,102747.47
2023-03-02T23:48:29.431Z,102748.34
2023-03-02T23:50:55.805Z,102748.34
2023-03-02T23:53:22.206Z,102745.75
2023-03-02T23:55:51.197Z,102751.78
2023-03-02T23:58:17.856Z,102752.66
